sensor_id;sensor_type;location;lat;lon;timestamp;P1;durP1;ratioP1;P2;durP2;ratioP2
27163;SDS011;14685;50.618;7.024;2023-07-31T00:01:32;5.13;;;2.90;;
27163;SDS011;14685;50.618;7.024;2023-07-31T00:03:59;4.90;;;2.63;;
27163;SDS011;14685;50.618;7.024;2023-07-31T00:06:26;8.57;;;3.08;;
27163;SDS011;14685;50.618;7.024;2023-07-31T00:08:53;5.07;;;2.60;;
27163;SDS011;14685;50.618;7.024;2023-07-31T00:11:21;5.30;;;2.22;;
27163;SDS011;14685;50.618;7.024;2023-07-31T00:13:48;5.63;;;2.50;;
27163;SDS011;14685;50.618;7.024;2023-07-31T00:16:15;5.55;;;2.13;;
27163;SDS011;14685;50.618;7.024;2023-07-31T00:18:42;5.45;;;2.55;;
27163;SDS011;14685;50.618;7.024;2023-07-31T00:21:09;5.57;;;2.55;;
27163;SDS011;14685;50.618;7.024;2023-07-31T00:23:38;4.90;;;2.38;;
27163;SDS011;14685;50.618;7.024;2023-07-31T00:26:05;6.68;;;2.90;;
27163;SDS011;14685;50.618;7.024;2023-07-31T00:28:33;4.22;;;2.83;;
27163;SDS011;14685;50.618;7.024;2023-07-31T00:30:59;4.10;;;2.30;;
27163;SDS011;14685;50.618;7.024;2023-07-31T00:33:28;6.43;;;2.63;;
27163;SDS011;14685;50.618;7.024;2023-07-31T00:35:56;8.00;;;2.90;;
27163;SDS011;14685;50.618;7.024;2023-07-31T00:38:22;5.88;;;2.10;;
27163;SDS011;14685;50.618;7.024;2023-07-31T00:40:49;4.22;;;2.63;;
27163;SDS011;14685;50.618;7.024;2023-07-31T00:43:16;4.07;;;2.45;;
27163;SDS011;14685;50.618;7.024;2023-07-31T00:45:43;4.30;;;2.20;;
27163;SDS011;14685;50.618;7.024;2023-07-31T00:48:12;4.60;;;2.30;;
27163;SDS011;14685;50.618;7.024;2023-07-31T00:50:39;4.47;;;2.40;;
27163;SDS011;14685;50.618;7.024;2023-07-31T00:53:06;3.88;;;2.42;;
27163;SDS011;14685;50.618;7.024;2023-07-31T00:55:33;4.40;;;2.17;;
27163;SDS011;14685;50.618;7.024;2023-07-31T00:58:00;5.43;;;2.50;;
27163;SDS011;14685;50.618;7.024;2023-07-31T01:00:27;5.75;;;2.83;;
27163;SDS011;14685;50.618;7.024;2023-07-31T01:02:55;3.90;;;2.45;;
27163;SDS011;14685;50.618;7.024;2023-07-31T01:05:33;5.72;;;2.70;;
27163;SDS011;14685;50.618;7.024;2023-07-31T01:08:12;5.47;;;2.97;;
27163;SDS011;14685;50.618;7.024;2023-07-31T01:10:49;5.03;;;2.72;;
27163;SDS011;14685;50.618;7.024;2023-07-31T01:13:20;4.50;;;2.63;;
27163;SDS011;14685;50.618;7.024;2023-07-31T01:15:47;7.35;;;3.03;;
27163;SDS011;14685;50.618;7.024;2023-07-31T01:18:14;6.60;;;3.20;;
27163;SDS011;14685;50.618;7.024;2023-07-31T01:20:41;3.15;;;2.53;;
27163;SDS011;14685;50.618;7.024;2023-07-31T01:25:47;7.07;;;2.70;;
27163;SDS011;14685;50.618;7.024;2023-07-31T01:28:20;6.68;;;3.00;;
27163;SDS011;14685;50.618;7.024;2023-07-31T01:31:12;7.88;;;3.10;;
27163;SDS011;14685;50.618;7.024;2023-07-31T01:33:44;7.38;;;3.05;;
27163;SDS011;14685;50.618;7.024;2023-07-31T01:36:15;5.85;;;2.85;;
27163;SDS011;14685;50.618;7.024;2023-07-31T01:38:42;4.55;;;2.78;;
27163;SDS011;14685;50.618;7.024;2023-07-31T01:41:10;5.55;;;3.15;;
27163;SDS011;14685;50.618;7.024;2023-07-31T01:43:40;10.85;;;3.45;;
27163;SDS011;14685;50.618;7.024;2023-07-31T01:46:08;6.63;;;2.78;;
27163;SDS011;14685;50.618;7.024;2023-07-31T01:48:35;6.45;;;3.30;;
27163;SDS011;14685;50.618;7.024;2023-07-31T01:51:03;4.82;;;3.17;;
27163;SDS011;14685;50.618;7.024;2023-07-31T01:53:31;8.02;;;3.05;;
27163;SDS011;14685;50.618;7.024;2023-07-31T01:55:58;8.43;;;3.10;;
27163;SDS011;14685;50.618;7.024;2023-07-31T01:58:25;7.85;;;3.30;;
27163;SDS011;14685;50.618;7.024;2023-07-31T02:00:54;4.88;;;3.05;;
27163;SDS011;14685;50.618;7.024;2023-07-31T02:03:21;6.68;;;3.20;;
27163;SDS011;14685;50.618;7.024;2023-07-31T02:05:48;8.30;;;2.95;;
27163;SDS011;14685;50.618;7.024;2023-07-31T02:08:16;6.18;;;3.20;;
27163;SDS011;14685;50.618;7.024;2023-07-31T02:10:43;5.72;;;3.22;;
27163;SDS011;14685;50.618;7.024;2023-07-31T02:13:10;5.00;;;3.00;;
27163;SDS011;14685;50.618;7.024;2023-07-31T02:15:37;7.03;;;3.67;;
27163;SDS011;14685;50.618;7.024;2023-07-31T02:18:04;7.13;;;3.13;;
27163;SDS011;14685;50.618;7.024;2023-07-31T02:20:34;5.45;;;3.13;;
27163;SDS011;14685;50.618;7.024;2023-07-31T02:23:01;5.70;;;3.30;;
27163;SDS011;14685;50.618;7.024;2023-07-31T02:25:28;5.47;;;3.10;;
27163;SDS011;14685;50.618;7.024;2023-07-31T02:27:55;7.38;;;3.33;;
27163;SDS011;14685;50.618;7.024;2023-07-31T02:30:22;7.20;;;3.10;;
27163;SDS011;14685;50.618;7.024;2023-07-31T02:32:50;5.72;;;2.97;;
27163;SDS011;14685;50.618;7.024;2023-07-31T02:35:18;7.95;;;2.78;;
27163;SDS011;14685;50.618;7.024;2023-07-31T02:37:45;7.00;;;3.25;;
27163;SDS011;14685;50.618;7.024;2023-07-31T02:40:13;6.45;;;2.78;;
27163;SDS011;14685;50.618;7.024;2023-07-31T02:42:40;5.63;;;2.63;;
27163;SDS011;14685;50.618;7.024;2023-07-31T02:45:07;7.00;;;3.50;;
27163;SDS011;14685;50.618;7.024;2023-07-31T02:47:34;5.28;;;3.00;;
27163;SDS011;14685;50.618;7.024;2023-07-31T02:50:02;5.15;;;3.15;;
27163;SDS011;14685;50.618;7.024;2023-07-31T02:52:29;8.80;;;3.40;;
27163;SDS011;14685;50.618;7.024;2023-07-31T02:54:57;6.65;;;3.67;;
27163;SDS011;14685;50.618;7.024;2023-07-31T02:57:24;6.68;;;2.80;;
27163;SDS011;14685;50.618;7.024;2023-07-31T02:59:52;6.05;;;2.90;;
27163;SDS011;14685;50.618;7.024;2023-07-31T03:02:20;8.57;;;3.30;;
27163;SDS011;14685;50.618;7.024;2023-07-31T03:04:48;6.53;;;3.20;;
27163;SDS011;14685;50.618;7.024;2023-07-31T03:07:15;8.73;;;3.47;;
27163;SDS011;14685;50.618;7.024;2023-07-31T03:09:42;6.78;;;3.38;;
27163;SDS011;14685;50.618;7.024;2023-07-31T03:12:10;6.35;;;3.38;;
27163;SDS011;14685;50.618;7.024;2023-07-31T03:14:37;6.88;;;3.10;;
27163;SDS011;14685;50.618;7.024;2023-07-31T03:17:05;3.90;;;2.85;;
27163;SDS011;14685;50.618;7.024;2023-07-31T03:19:33;7.35;;;3.55;;
27163;SDS011;14685;50.618;7.024;2023-07-31T03:22:01;4.53;;;2.78;;
27163;SDS011;14685;50.618;7.024;2023-07-31T03:24:28;4.43;;;2.83;;
27163;SDS011;14685;50.618;7.024;2023-07-31T03:26:55;4.55;;;2.70;;
27163;SDS011;14685;50.618;7.024;2023-07-31T03:29:22;9.23;;;2.95;;
27163;SDS011;14685;50.618;7.024;2023-07-31T03:31:50;7.65;;;2.80;;
27163;SDS011;14685;50.618;7.024;2023-07-31T03:34:17;4.10;;;2.78;;
27163;SDS011;14685;50.618;7.024;2023-07-31T03:36:45;7.50;;;2.88;;
27163;SDS011;14685;50.618;7.024;2023-07-31T03:39:12;5.75;;;3.20;;
27163;SDS011;14685;50.618;7.024;2023-07-31T03:41:40;5.35;;;2.88;;
27163;SDS011;14685;50.618;7.024;2023-07-31T03:44:07;5.10;;;2.67;;
27163;SDS011;14685;50.618;7.024;2023-07-31T03:46:34;8.30;;;3.05;;
27163;SDS011;14685;50.618;7.024;2023-07-31T03:49:03;7.82;;;3.13;;
27163;SDS011;14685;50.618;7.024;2023-07-31T03:51:30;4.88;;;3.15;;
27163;SDS011;14685;50.618;7.024;2023-07-31T03:53:58;5.63;;;3.38;;
27163;SDS011;14685;50.618;7.024;2023-07-31T03:56:25;5.97;;;3.25;;
27163;SDS011;14685;50.618;7.024;2023-07-31T03:58:52;5.10;;;3.17;;
27163;SDS011;14685;50.618;7.024;2023-07-31T04:01:20;5.25;;;3.17;;
27163;SDS011;14685;50.618;7.024;2023-07-31T04:03:48;6.72;;;3.78;;
27163;SDS011;14685;50.618;7.024;2023-07-31T04:06:16;6.32;;;3.03;;
27163;SDS011;14685;50.618;7.024;2023-07-31T04:08:44;7.53;;;3.30;;
27163;SDS011;14685;50.618;7.024;2023-07-31T04:11:11;5.93;;;2.85;;
27163;SDS011;14685;50.618;7.024;2023-07-31T04:13:40;3.40;;;2.63;;
27163;SDS011;14685;50.618;7.024;2023-07-31T04:16:08;8.18;;;2.90;;
27163;SDS011;14685;50.618;7.024;2023-07-31T04:18:47;5.47;;;3.05;;
27163;SDS011;14685;50.618;7.024;2023-07-31T04:21:14;4.50;;;2.92;;
27163;SDS011;14685;50.618;7.024;2023-07-31T04:23:41;5.45;;;3.00;;
27163;SDS011;14685;50.618;7.024;2023-07-31T04:26:09;5.60;;;2.83;;
27163;SDS011;14685;50.618;7.024;2023-07-31T04:28:36;7.13;;;3.17;;
27163;SDS011;14685;50.618;7.024;2023-07-31T04:31:04;6.95;;;3.95;;
27163;SDS011;14685;50.618;7.024;2023-07-31T04:33:31;5.20;;;2.85;;
27163;SDS011;14685;50.618;7.024;2023-07-31T04:35:59;7.10;;;3.08;;
27163;SDS011;14685;50.618;7.024;2023-07-31T04:38:25;5.68;;;3.30;;
27163;SDS011;14685;50.618;7.024;2023-07-31T04:40:52;3.72;;;2.92;;
27163;SDS011;14685;50.618;7.024;2023-07-31T04:43:19;6.32;;;3.05;;
27163;SDS011;14685;50.618;7.024;2023-07-31T04:45:47;5.07;;;3.20;;
27163;SDS011;14685;50.618;7.024;2023-07-31T04:48:14;4.03;;;2.63;;
27163;SDS011;14685;50.618;7.024;2023-07-31T04:50:41;6.43;;;3.58;;
27163;SDS011;14685;50.618;7.024;2023-07-31T04:53:08;5.10;;;3.15;;
27163;SDS011;14685;50.618;7.024;2023-07-31T04:55:35;4.30;;;3.13;;
27163;SDS011;14685;50.618;7.024;2023-07-31T04:58:04;8.93;;;3.35;;
27163;SDS011;14685;50.618;7.024;2023-07-31T05:00:31;5.82;;;3.10;;
27163;SDS011;14685;50.618;7.024;2023-07-31T05:03:00;7.32;;;3.33;;
27163;SDS011;14685;50.618;7.024;2023-07-31T05:05:27;5.57;;;3.03;;
27163;SDS011;14685;50.618;7.024;2023-07-31T05:07:55;5.05;;;3.05;;
27163;SDS011;14685;50.618;7.024;2023-07-31T05:10:22;5.60;;;3.08;;
27163;SDS011;14685;50.618;7.024;2023-07-31T05:12:48;4.60;;;2.80;;
27163;SDS011;14685;50.618;7.024;2023-07-31T05:15:15;3.92;;;2.70;;
27163;SDS011;14685;50.618;7.024;2023-07-31T05:17:42;6.05;;;2.85;;
27163;SDS011;14685;50.618;7.024;2023-07-31T05:20:09;5.70;;;3.20;;
27163;SDS011;14685;50.618;7.024;2023-07-31T05:22:38;4.20;;;3.00;;
27163;SDS011;14685;50.618;7.024;2023-07-31T05:25:05;4.55;;;2.65;;
27163;SDS011;14685;50.618;7.024;2023-07-31T05:27:32;6.47;;;2.92;;
27163;SDS011;14685;50.618;7.024;2023-07-31T05:29:59;8.18;;;3.33;;
27163;SDS011;14685;50.618;7.024;2023-07-31T05:32:26;4.30;;;2.88;;
27163;SDS011;14685;50.618;7.024;2023-07-31T05:34:54;4.40;;;2.55;;
27163;SDS011;14685;50.618;7.024;2023-07-31T05:37:23;4.60;;;2.70;;
27163;SDS011;14685;50.618;7.024;2023-07-31T05:39:52;4.18;;;3.05;;
27163;SDS011;14685;50.618;7.024;2023-07-31T05:42:19;4.00;;;3.13;;
27163;SDS011;14685;50.618;7.024;2023-07-31T05:44:45;5.60;;;2.83;;
27163;SDS011;14685;50.618;7.024;2023-07-31T05:47:15;5.80;;;3.10;;
27163;SDS011;14685;50.618;7.024;2023-07-31T05:49:43;10.35;;;3.28;;
27163;SDS011;14685;50.618;7.024;2023-07-31T05:52:10;6.20;;;3.42;;
27163;SDS011;14685;50.618;7.024;2023-07-31T05:54:38;7.30;;;3.35;;
27163;SDS011;14685;50.618;7.024;2023-07-31T05:57:08;8.00;;;3.42;;
27163;SDS011;14685;50.618;7.024;2023-07-31T05:59:36;6.05;;;3.15;;
27163;SDS011;14685;50.618;7.024;2023-07-31T06:02:03;6.05;;;3.58;;
27163;SDS011;14685;50.618;7.024;2023-07-31T06:04:31;5.85;;;3.00;;
27163;SDS011;14685;50.618;7.024;2023-07-31T06:06:59;6.50;;;3.67;;
27163;SDS011;14685;50.618;7.024;2023-07-31T06:09:26;4.28;;;2.95;;
27163;SDS011;14685;50.618;7.024;2023-07-31T06:11:53;4.75;;;3.30;;
27163;SDS011;14685;50.618;7.024;2023-07-31T06:14:21;8.27;;;3.55;;
27163;SDS011;14685;50.618;7.024;2023-07-31T06:16:48;8.43;;;3.65;;
27163;SDS011;14685;50.618;7.024;2023-07-31T06:19:16;9.45;;;4.38;;
27163;SDS011;14685;50.618;7.024;2023-07-31T06:21:43;6.38;;;3.53;;
27163;SDS011;14685;50.618;7.024;2023-07-31T06:24:10;4.68;;;3.28;;
27163;SDS011;14685;50.618;7.024;2023-07-31T06:26:38;6.28;;;3.15;;
27163;SDS011;14685;50.618;7.024;2023-07-31T06:29:05;7.25;;;3.63;;
27163;SDS011;14685;50.618;7.024;2023-07-31T06:31:32;9.20;;;3.47;;
27163;SDS011;14685;50.618;7.024;2023-07-31T06:33:59;5.63;;;3.25;;
27163;SDS011;14685;50.618;7.024;2023-07-31T06:36:26;6.70;;;3.50;;
27163;SDS011;14685;50.618;7.024;2023-07-31T06:38:55;6.30;;;3.42;;
27163;SDS011;14685;50.618;7.024;2023-07-31T06:41:22;5.93;;;3.22;;
27163;SDS011;14685;50.618;7.024;2023-07-31T06:43:50;5.70;;;3.20;;
27163;SDS011;14685;50.618;7.024;2023-07-31T06:46:20;5.72;;;3.50;;
27163;SDS011;14685;50.618;7.024;2023-07-31T06:48:46;8.68;;;3.55;;
27163;SDS011;14685;50.618;7.024;2023-07-31T06:51:13;7.57;;;3.88;;
27163;SDS011;14685;50.618;7.024;2023-07-31T06:53:40;5.70;;;3.00;;
27163;SDS011;14685;50.618;7.024;2023-07-31T06:56:07;5.65;;;3.38;;
27163;SDS011;14685;50.618;7.024;2023-07-31T06:58:34;8.38;;;3.13;;
27163;SDS011;14685;50.618;7.024;2023-07-31T07:01:01;5.20;;;3.03;;
27163;SDS011;14685;50.618;7.024;2023-07-31T07:03:28;9.48;;;3.42;;
27163;SDS011;14685;50.618;7.024;2023-07-31T07:05:55;8.13;;;3.90;;
27163;SDS011;14685;50.618;7.024;2023-07-31T07:08:22;5.13;;;3.22;;
27163;SDS011;14685;50.618;7.024;2023-07-31T07:10:52;10.73;;;4.05;;
27163;SDS011;14685;50.618;7.024;2023-07-31T07:13:20;6.72;;;3.60;;
27163;SDS011;14685;50.618;7.024;2023-07-31T07:15:49;8.23;;;3.85;;
27163;SDS011;14685;50.618;7.024;2023-07-31T07:18:16;6.30;;;3.35;;
27163;SDS011;14685;50.618;7.024;2023-07-31T07:20:51;10.30;;;4.25;;
27163;SDS011;14685;50.618;7.024;2023-07-31T07:23:19;8.60;;;4.05;;
27163;SDS011;14685;50.618;7.024;2023-07-31T07:25:47;6.65;;;3.92;;
27163;SDS011;14685;50.618;7.024;2023-07-31T07:28:14;7.30;;;4.00;;
27163;SDS011;14685;50.618;7.024;2023-07-31T07:30:42;6.32;;;3.40;;
27163;SDS011;14685;50.618;7.024;2023-07-31T07:33:09;7.82;;;3.55;;
27163;SDS011;14685;50.618;7.024;2023-07-31T07:35:37;10.93;;;3.95;;
27163;SDS011;14685;50.618;7.024;2023-07-31T07:38:04;7.43;;;3.88;;
27163;SDS011;14685;50.618;7.024;2023-07-31T07:40:31;6.80;;;3.97;;
27163;SDS011;14685;50.618;7.024;2023-07-31T07:42:58;8.20;;;3.88;;
27163;SDS011;14685;50.618;7.024;2023-07-31T07:45:27;5.68;;;3.90;;
27163;SDS011;14685;50.618;7.024;2023-07-31T07:47:55;7.32;;;3.80;;
27163;SDS011;14685;50.618;7.024;2023-07-31T07:50:23;5.35;;;3.70;;
27163;SDS011;14685;50.618;7.024;2023-07-31T07:52:50;5.50;;;3.13;;
27163;SDS011;14685;50.618;7.024;2023-07-31T07:55:17;5.85;;;3.15;;
27163;SDS011;14685;50.618;7.024;2023-07-31T07:57:44;7.43;;;3.65;;
27163;SDS011;14685;50.618;7.024;2023-07-31T08:00:12;9.25;;;3.80;;
27163;SDS011;14685;50.618;7.024;2023-07-31T08:02:40;7.75;;;3.40;;
27163;SDS011;14685;50.618;7.024;2023-07-31T08:05:09;6.13;;;3.22;;
27163;SDS011;14685;50.618;7.024;2023-07-31T08:07:36;7.00;;;3.25;;
27163;SDS011;14685;50.618;7.024;2023-07-31T08:10:03;9.40;;;3.40;;
27163;SDS011;14685;50.618;7.024;2023-07-31T08:12:31;7.80;;;3.03;;
27163;SDS011;14685;50.618;7.024;2023-07-31T08:14:58;7.05;;;2.95;;
27163;SDS011;14685;50.618;7.024;2023-07-31T08:17:26;6.25;;;2.95;;
27163;SDS011;14685;50.618;7.024;2023-07-31T08:19:53;7.75;;;2.67;;
27163;SDS011;14685;50.618;7.024;2023-07-31T08:22:21;5.82;;;2.85;;
27163;SDS011;14685;50.618;7.024;2023-07-31T08:24:49;4.00;;;2.60;;
27163;SDS011;14685;50.618;7.024;2023-07-31T08:27:17;5.88;;;3.03;;
27163;SDS011;14685;50.618;7.024;2023-07-31T08:29:46;6.90;;;3.08;;
27163;SDS011;14685;50.618;7.024;2023-07-31T08:32:12;5.90;;;2.60;;
27163;SDS011;14685;50.618;7.024;2023-07-31T08:34:40;4.80;;;2.72;;
27163;SDS011;14685;50.618;7.024;2023-07-31T08:37:08;5.10;;;3.28;;
27163;SDS011;14685;50.618;7.024;2023-07-31T08:39:35;5.63;;;2.72;;
27163;SDS011;14685;50.618;7.024;2023-07-31T08:42:08;3.65;;;2.50;;
27163;SDS011;14685;50.618;7.024;2023-07-31T08:44:35;5.55;;;2.67;;
27163;SDS011;14685;50.618;7.024;2023-07-31T08:47:03;7.05;;;2.60;;
27163;SDS011;14685;50.618;7.024;2023-07-31T08:49:31;7.07;;;2.53;;
27163;SDS011;14685;50.618;7.024;2023-07-31T08:52:00;6.43;;;2.28;;
27163;SDS011;14685;50.618;7.024;2023-07-31T08:54:28;6.15;;;2.17;;
27163;SDS011;14685;50.618;7.024;2023-07-31T08:56:59;3.97;;;2.60;;
27163;SDS011;14685;50.618;7.024;2023-07-31T08:59:30;7.03;;;2.70;;
27163;SDS011;14685;50.618;7.024;2023-07-31T09:02:00;7.47;;;2.70;;
27163;SDS011;14685;50.618;7.024;2023-07-31T09:04:34;4.07;;;2.60;;
27163;SDS011;14685;50.618;7.024;2023-07-31T09:07:02;8.70;;;2.60;;
27163;SDS011;14685;50.618;7.024;2023-07-31T09:09:33;2.97;;;1.92;;
27163;SDS011;14685;50.618;7.024;2023-07-31T09:12:00;5.63;;;2.53;;
27163;SDS011;14685;50.618;7.024;2023-07-31T09:14:28;5.25;;;2.28;;
27163;SDS011;14685;50.618;7.024;2023-07-31T09:16:55;5.07;;;2.20;;
27163;SDS011;14685;50.618;7.024;2023-07-31T09:19:35;4.88;;;2.22;;
27163;SDS011;14685;50.618;7.024;2023-07-31T09:22:05;3.97;;;1.95;;
27163;SDS011;14685;50.618;7.024;2023-07-31T09:24:34;4.68;;;2.65;;
27163;SDS011;14685;50.618;7.024;2023-07-31T09:27:01;4.53;;;2.40;;
27163;SDS011;14685;50.618;7.024;2023-07-31T09:29:28;3.63;;;2.28;;
27163;SDS011;14685;50.618;7.024;2023-07-31T09:31:56;4.88;;;2.38;;
27163;SDS011;14685;50.618;7.024;2023-07-31T09:34:29;4.57;;;2.28;;
27163;SDS011;14685;50.618;7.024;2023-07-31T09:37:04;3.67;;;2.10;;
27163;SDS011;14685;50.618;7.024;2023-07-31T09:39:31;3.72;;;2.60;;
27163;SDS011;14685;50.618;7.024;2023-07-31T09:41:58;8.02;;;2.58;;
27163;SDS011;14685;50.618;7.024;2023-07-31T09:44:37;3.30;;;2.17;;
27163;SDS011;14685;50.618;7.024;2023-07-31T09:47:20;4.53;;;2.25;;
27163;SDS011;14685;50.618;7.024;2023-07-31T09:49:51;3.15;;;2.17;;
27163;SDS011;14685;50.618;7.024;2023-07-31T09:52:19;2.85;;;1.80;;
27163;SDS011;14685;50.618;7.024;2023-07-31T09:54:46;3.70;;;2.10;;
27163;SDS011;14685;50.618;7.024;2023-07-31T09:57:13;3.85;;;1.88;;
27163;SDS011;14685;50.618;7.024;2023-07-31T09:59:47;5.30;;;2.03;;
27163;SDS011;14685;50.618;7.024;2023-07-31T10:02:15;5.47;;;2.20;;
27163;SDS011;14685;50.618;7.024;2023-07-31T10:04:51;7.78;;;2.33;;
27163;SDS011;14685;50.618;7.024;2023-07-31T10:07:23;6.68;;;2.28;;
27163;SDS011;14685;50.618;7.024;2023-07-31T10:09:52;5.28;;;2.47;;
27163;SDS011;14685;50.618;7.024;2023-07-31T10:12:21;3.85;;;2.13;;
27163;SDS011;14685;50.618;7.024;2023-07-31T10:14:51;5.90;;;2.33;;
27163;SDS011;14685;50.618;7.024;2023-07-31T10:17:24;10.00;;;5.70;;
27163;SDS011;14685;50.618;7.024;2023-07-31T10:19:52;5.93;;;2.53;;
27163;SDS011;14685;50.618;7.024;2023-07-31T10:22:20;5.88;;;2.25;;
27163;SDS011;14685;50.618;7.024;2023-07-31T10:24:48;3.45;;;2.20;;
27163;SDS011;14685;50.618;7.024;2023-07-31T10:27:16;3.45;;;1.77;;
27163;SDS011;14685;50.618;7.024;2023-07-31T10:29:43;5.80;;;1.95;;
27163;SDS011;14685;50.618;7.024;2023-07-31T10:32:15;4.90;;;2.65;;
27163;SDS011;14685;50.618;7.024;2023-07-31T10:34:45;4.82;;;2.00;;
27163;SDS011;14685;50.618;7.024;2023-07-31T10:39:56;5.85;;;2.05;;
27163;SDS011;14685;50.618;7.024;2023-07-31T10:42:28;5.28;;;1.88;;
27163;SDS011;14685;50.618;7.024;2023-07-31T10:44:58;3.70;;;1.80;;
27163;SDS011;14685;50.618;7.024;2023-07-31T10:47:26;3.63;;;1.80;;
27163;SDS011;14685;50.618;7.024;2023-07-31T10:50:10;5.00;;;2.00;;
27163;SDS011;14685;50.618;7.024;2023-07-31T10:52:40;3.50;;;1.92;;
27163;SDS011;14685;50.618;7.024;2023-07-31T10:55:24;4.15;;;1.77;;
27163;SDS011;14685;50.618;7.024;2023-07-31T10:57:53;4.07;;;1.88;;
27163;SDS011;14685;50.618;7.024;2023-07-31T11:00:26;2.58;;;1.90;;
27163;SDS011;14685;50.618;7.024;2023-07-31T11:02:58;2.47;;;1.95;;
27163;SDS011;14685;50.618;7.024;2023-07-31T11:08:21;4.97;;;1.83;;
27163;SDS011;14685;50.618;7.024;2023-07-31T11:10:51;2.90;;;1.90;;
27163;SDS011;14685;50.618;7.024;2023-07-31T11:13:43;4.20;;;2.13;;
27163;SDS011;14685;50.618;7.024;2023-07-31T11:16:17;2.85;;;1.52;;
27163;SDS011;14685;50.618;7.024;2023-07-31T11:18:46;5.55;;;1.95;;
27163;SDS011;14685;50.618;7.024;2023-07-31T11:21:15;4.47;;;1.88;;
27163;SDS011;14685;50.618;7.024;2023-07-31T11:23:47;6.40;;;2.00;;
27163;SDS011;14685;50.618;7.024;2023-07-31T11:26:19;4.50;;;2.20;;
27163;SDS011;14685;50.618;7.024;2023-07-31T11:28:47;2.75;;;1.98;;
27163;SDS011;14685;50.618;7.024;2023-07-31T11:31:15;2.90;;;1.98;;
27163;SDS011;14685;50.618;7.024;2023-07-31T11:33:43;4.40;;;1.60;;
27163;SDS011;14685;50.618;7.024;2023-07-31T11:36:15;4.13;;;2.00;;
27163;SDS011;14685;50.618;7.024;2023-07-31T11:38:46;3.45;;;1.80;;
27163;SDS011;14685;50.618;7.024;2023-07-31T11:41:15;3.28;;;1.52;;
27163;SDS011;14685;50.618;7.024;2023-07-31T11:43:44;3.38;;;1.58;;
27163;SDS011;14685;50.618;7.024;2023-07-31T11:46:14;3.58;;;1.42;;
27163;SDS011;14685;50.618;7.024;2023-07-31T11:48:41;3.45;;;1.30;;
27163;SDS011;14685;50.618;7.024;2023-07-31T11:51:10;2.05;;;1.35;;
27163;SDS011;14685;50.618;7.024;2023-07-31T11:56:10;3.63;;;1.88;;
27163;SDS011;14685;50.618;7.024;2023-07-31T11:58:41;2.95;;;2.10;;
27163;SDS011;14685;50.618;7.024;2023-07-31T12:01:10;2.50;;;1.92;;
27163;SDS011;14685;50.618;7.024;2023-07-31T12:03:41;4.03;;;2.25;;
27163;SDS011;14685;50.618;7.024;2023-07-31T12:06:09;4.05;;;2.33;;
27163;SDS011;14685;50.618;7.024;2023-07-31T12:08:36;4.45;;;2.53;;
27163;SDS011;14685;50.618;7.024;2023-07-31T12:11:03;5.03;;;2.90;;
27163;SDS011;14685;50.618;7.024;2023-07-31T12:13:32;5.63;;;2.75;;
27163;SDS011;14685;50.618;7.024;2023-07-31T12:16:02;3.65;;;2.70;;
27163;SDS011;14685;50.618;7.024;2023-07-31T12:18:33;6.32;;;3.55;;
27163;SDS011;14685;50.618;7.024;2023-07-31T12:21:02;5.47;;;3.70;;
27163;SDS011;14685;50.618;7.024;2023-07-31T12:23:31;4.18;;;3.10;;
27163;SDS011;14685;50.618;7.024;2023-07-31T12:26:09;3.97;;;3.33;;
27163;SDS011;14685;50.618;7.024;2023-07-31T12:28:50;6.18;;;3.60;;
27163;SDS011;14685;50.618;7.024;2023-07-31T12:33:46;5.40;;;3.22;;
27163;SDS011;14685;50.618;7.024;2023-07-31T12:36:15;4.88;;;3.45;;
27163;SDS011;14685;50.618;7.024;2023-07-31T12:38:51;4.82;;;3.45;;
27163;SDS011;14685;50.618;7.024;2023-07-31T12:41:19;4.97;;;3.60;;
27163;SDS011;14685;50.618;7.024;2023-07-31T12:43:46;5.45;;;3.65;;
27163;SDS011;14685;50.618;7.024;2023-07-31T12:46:13;4.38;;;3.40;;
27163;SDS011;14685;50.618;7.024;2023-07-31T12:48:42;4.93;;;3.75;;
27163;SDS011;14685;50.618;7.024;2023-07-31T12:51:10;5.20;;;3.45;;
27163;SDS011;14685;50.618;7.024;2023-07-31T12:53:38;7.53;;;3.50;;
27163;SDS011;14685;50.618;7.024;2023-07-31T12:56:07;4.68;;;3.55;;
27163;SDS011;14685;50.618;7.024;2023-07-31T12:58:34;6.40;;;3.30;;
27163;SDS011;14685;50.618;7.024;2023-07-31T13:01:01;5.07;;;3.45;;
27163;SDS011;14685;50.618;7.024;2023-07-31T13:03:29;4.63;;;3.42;;
27163;SDS011;14685;50.618;7.024;2023-07-31T13:05:56;6.85;;;3.63;;
27163;SDS011;14685;50.618;7.024;2023-07-31T13:08:24;4.03;;;2.85;;
27163;SDS011;14685;50.618;7.024;2023-07-31T13:10:52;5.82;;;3.17;;
27163;SDS011;14685;50.618;7.024;2023-07-31T13:13:19;4.47;;;3.15;;
27163;SDS011;14685;50.618;7.024;2023-07-31T13:15:47;7.28;;;3.40;;
27163;SDS011;14685;50.618;7.024;2023-07-31T13:18:14;4.25;;;2.72;;
27163;SDS011;14685;50.618;7.024;2023-07-31T13:20:41;4.05;;;2.58;;
27163;SDS011;14685;50.618;7.024;2023-07-31T13:23:08;2.92;;;2.63;;
27163;SDS011;14685;50.618;7.024;2023-07-31T13:25:35;4.53;;;2.20;;
27163;SDS011;14685;50.618;7.024;2023-07-31T13:28:02;4.80;;;2.13;;
27163;SDS011;14685;50.618;7.024;2023-07-31T13:30:30;2.60;;;2.10;;
27163;SDS011;14685;50.618;7.024;2023-07-31T13:32:57;3.63;;;2.45;;
27163;SDS011;14685;50.618;7.024;2023-07-31T13:35:26;3.22;;;2.20;;
27163;SDS011;14685;50.618;7.024;2023-07-31T13:37:52;4.07;;;2.50;;
27163;SDS011;14685;50.618;7.024;2023-07-31T13:40:19;3.38;;;2.33;;
27163;SDS011;14685;50.618;7.024;2023-07-31T13:42:46;5.00;;;2.38;;
27163;SDS011;14685;50.618;7.024;2023-07-31T13:45:14;3.88;;;1.90;;
27163;SDS011;14685;50.618;7.024;2023-07-31T13:47:41;2.53;;;2.10;;
27163;SDS011;14685;50.618;7.024;2023-07-31T13:50:09;3.50;;;2.40;;
27163;SDS011;14685;50.618;7.024;2023-07-31T13:52:36;3.50;;;2.38;;
27163;SDS011;14685;50.618;7.024;2023-07-31T13:55:03;3.03;;;2.17;;
27163;SDS011;14685;50.618;7.024;2023-07-31T13:57:30;2.67;;;1.90;;
27163;SDS011;14685;50.618;7.024;2023-07-31T13:59:57;3.30;;;2.15;;
27163;SDS011;14685;50.618;7.024;2023-07-31T14:02:25;2.75;;;1.67;;
27163;SDS011;14685;50.618;7.024;2023-07-31T14:04:53;2.35;;;1.77;;
27163;SDS011;14685;50.618;7.024;2023-07-31T14:07:21;2.90;;;1.92;;
27163;SDS011;14685;50.618;7.024;2023-07-31T14:09:48;3.63;;;1.73;;
27163;SDS011;14685;50.618;7.024;2023-07-31T14:12:15;4.65;;;1.73;;
27163;SDS011;14685;50.618;7.024;2023-07-31T14:15:02;3.03;;;1.60;;
27163;SDS011;14685;50.618;7.024;2023-07-31T14:17:29;2.63;;;1.92;;
27163;SDS011;14685;50.618;7.024;2023-07-31T14:19:58;2.75;;;1.58;;
27163;SDS011;14685;50.618;7.024;2023-07-31T14:22:31;3.22;;;1.92;;
27163;SDS011;14685;50.618;7.024;2023-07-31T14:25:00;2.67;;;1.83;;
27163;SDS011;14685;50.618;7.024;2023-07-31T14:27:28;5.20;;;1.73;;
27163;SDS011;14685;50.618;7.024;2023-07-31T14:29:55;4.63;;;1.70;;
27163;SDS011;14685;50.618;7.024;2023-07-31T14:32:22;2.13;;;1.80;;
27163;SDS011;14685;50.618;7.024;2023-07-31T14:34:52;2.05;;;1.45;;
27163;SDS011;14685;50.618;7.024;2023-07-31T14:37:19;2.33;;;1.50;;
27163;SDS011;14685;50.618;7.024;2023-07-31T14:39:48;1.60;;;1.30;;
27163;SDS011;14685;50.618;7.024;2023-07-31T14:42:17;2.47;;;1.45;;
27163;SDS011;14685;50.618;7.024;2023-07-31T14:44:45;3.85;;;1.90;;
27163;SDS011;14685;50.618;7.024;2023-07-31T14:47:13;3.53;;;2.00;;
27163;SDS011;14685;50.618;7.024;2023-07-31T14:49:40;2.38;;;1.58;;
27163;SDS011;14685;50.618;7.024;2023-07-31T14:52:07;2.28;;;1.60;;
27163;SDS011;14685;50.618;7.024;2023-07-31T14:54:34;1.67;;;1.33;;
27163;SDS011;14685;50.618;7.024;2023-07-31T14:57:02;4.13;;;1.60;;
27163;SDS011;14685;50.618;7.024;2023-07-31T14:59:31;3.67;;;1.60;;
27163;SDS011;14685;50.618;7.024;2023-07-31T15:01:58;2.10;;;1.83;;
27163;SDS011;14685;50.618;7.024;2023-07-31T15:04:25;2.33;;;1.70;;
27163;SDS011;14685;50.618;7.024;2023-07-31T15:06:53;2.25;;;1.70;;
27163;SDS011;14685;50.618;7.024;2023-07-31T15:09:20;2.28;;;1.52;;